createdAt,value
2019-05-01T00:02:39.005Z,99.90
2019-05-01T00:05:16.779Z,99.90
2019-05-01T00:07:45.853Z,99.90
2019-05-01T00:10:16.248Z,99.90
2019-05-01T00:12:47.499Z,99.90
2019-05-01T00:15:22.779Z,99.90
2019-05-01T00:17:52.977Z,99.90
2019-05-01T00:20:21.972Z,99.90
2019-05-01T00:22:53.921Z,99.90
2019-05-01T00:25:23.308Z,99.90
2019-05-01T00:27:54.809Z,99.90
2019-05-01T00:30:30.178Z,99.90
2019-05-01T00:32:59.624Z,99.90
2019-05-01T00:35:29.275Z,99.90
2019-05-01T00:38:00.504Z,99.90
2019-05-01T00:40:31.905Z,99.90
2019-05-01T00:43:03.470Z,99.90
2019-05-01T00:45:36.024Z,99.90
2019-05-01T00:48:06.243Z,99.90
2019-05-01T00:50:37.417Z,99.90
2019-05-01T00:53:12.698Z,99.90
2019-05-01T00:56:07.146Z,99.90
2019-05-01T00:58:48.045Z,99.90
2019-05-01T01:01:36.019Z,99.90
2019-05-01T01:04:06.071Z,99.90
2019-05-01T01:06:34.988Z,99.90
2019-05-01T01:09:06.037Z,99.90
2019-05-01T01:11:34.998Z,99.90
2019-05-01T01:14:06.282Z,99.90
2019-05-01T01:16:38.090Z,99.90
2019-05-01T01:19:08.332Z,99.90
2019-05-01T01:21:37.361Z,99.90
2019-05-01T01:24:06.753Z,99.90
2019-05-01T01:26:36.309Z,99.90
2019-05-01T01:29:07.912Z,99.90
2019-05-01T01:31:37.509Z,99.90
2019-05-01T01:34:06.668Z,99.90
2019-05-01T01:36:35.899Z,99.90
2019-05-01T01:39:06.960Z,99.90
2019-05-01T01:41:38.972Z,99.90
2019-05-01T01:44:24.487Z,99.90
2019-05-01T01:46:54.586Z,99.90
2019-05-01T01:49:25.873Z,99.90
2019-05-01T01:51:55.740Z,99.90
2019-05-01T01:54:25.114Z,99.90
2019-05-01T01:56:54.074Z,99.90
2019-05-01T01:59:24.429Z,99.90
2019-05-01T02:02:09.155Z,99.90
2019-05-01T02:04:57.043Z,99.90
2019-05-01T02:07:26.656Z,99.90
2019-05-01T02:09:55.630Z,99.90
2019-05-01T02:12:26.949Z,99.90
2019-05-01T02:14:59.381Z,99.90
2019-05-01T02:17:32.601Z,99.90
2019-05-01T02:20:02.180Z,99.90
2019-05-01T02:22:31.398Z,99.90
2019-05-01T02:25:03.140Z,99.90
2019-05-01T02:27:42.989Z,99.90
2019-05-01T02:30:14.250Z,99.90
2019-05-01T02:32:46.718Z,99.90
2019-05-01T02:35:18.806Z,99.90
2019-05-01T02:37:48.817Z,99.90
2019-05-01T02:40:42.873Z,99.90
2019-05-01T02:43:16.152Z,99.90
2019-05-01T02:45:48.437Z,99.90
2019-05-01T02:48:20.811Z,99.90
2019-05-01T02:50:53.332Z,99.90
2019-05-01T02:53:25.068Z,99.90
2019-05-01T02:56:14.521Z,99.90
2019-05-01T02:58:50.905Z,99.90
2019-05-01T03:01:21.911Z,99.90
2019-05-01T03:03:53.637Z,99.90
2019-05-01T03:06:23.893Z,99.90
2019-05-01T03:08:56.917Z,99.90
2019-05-01T03:11:27.147Z,99.90
2019-05-01T03:13:59.174Z,99.90
2019-05-01T03:16:29.973Z,99.90
2019-05-01T03:19:08.593Z,99.90
2019-05-01T03:21:45.962Z,99.90
2019-05-01T03:24:25.052Z,99.90
2019-05-01T03:26:54.924Z,99.90
2019-05-01T03:29:24.714Z,99.90
2019-05-01T03:32:15.211Z,99.90
2019-05-01T03:34:26.196Z,99.90
2019-05-01T03:36:58.917Z,99.90
2019-05-01T03:39:29.405Z,99.90
2019-05-01T03:41:58.583Z,99.90
2019-05-01T03:44:28.150Z,99.90
2019-05-01T03:46:58.425Z,99.90
2019-05-01T03:49:28.181Z,99.90
2019-05-01T03:52:00.274Z,99.90
2019-05-01T03:54:32.044Z,99.90
2019-05-01T03:57:01.908Z,99.90
2019-05-01T03:59:31.621Z,99.90
2019-05-01T04:02:09.013Z,99.90
2019-05-01T04:04:46.721Z,99.90
2019-05-01T04:07:18.883Z,99.90
2019-05-01T04:09:47.863Z,99.90
2019-05-01T04:12:20.167Z,99.90
2019-05-01T04:14:53.947Z,99.90
2019-05-01T04:17:38.251Z,99.90
2019-05-01T04:20:10.479Z,99.90
2019-05-01T04:22:41.508Z,99.90
2019-05-01T04:25:12.196Z,99.90
2019-05-01T04:27:43.685Z,99.90
2019-05-01T04:30:25.122Z,99.90
2019-05-01T04:32:57.381Z,99.90
2019-05-01T04:35:49.793Z,99.90
2019-05-01T04:38:20.705Z,99.90
2019-05-01T04:40:49.846Z,99.90
2019-05-01T04:43:22.047Z,99.90
2019-05-01T04:45:52.720Z,99.90
2019-05-01T04:48:22.290Z,99.90
2019-05-01T04:50:54.428Z,99.90
2019-05-01T04:53:23.908Z,99.90
2019-05-01T04:55:53.928Z,99.90
2019-05-01T04:58:24.349Z,99.90
2019-05-01T05:00:54.877Z,99.90
2019-05-01T05:03:25.675Z,99.90
2019-05-01T05:05:56.071Z,99.90
2019-05-01T05:08:25.616Z,99.90
2019-05-01T05:10:57.741Z,99.90
2019-05-01T05:13:36.704Z,99.90
2019-05-01T05:16:37.793Z,99.90
2019-05-01T05:19:08.837Z,99.90
2019-05-01T05:21:38.297Z,99.90
2019-05-01T05:24:07.693Z,99.90
2019-05-01T05:26:37.440Z,99.90
2019-05-01T05:29:06.408Z,99.90
2019-05-01T05:31:36.381Z,99.90
2019-05-01T05:34:10.182Z,99.90
2019-05-01T05:36:40.863Z,99.90
2019-05-01T05:39:17.259Z,99.90
2019-05-01T05:41:48.554Z,99.90
2019-05-01T05:44:18.854Z,99.90
2019-05-01T05:46:49.577Z,99.90
2019-05-01T05:49:19.469Z,99.90
2019-05-01T05:52:14.439Z,99.90
2019-05-01T05:55:04.997Z,99.90
2019-05-01T05:58:04.096Z,99.90
2019-05-01T06:00:52.624Z,99.90
2019-05-01T06:03:42.793Z,99.90
2019-05-01T06:06:52.643Z,99.90
2019-05-01T06:09:26.636Z,99.90
2019-05-01T06:12:19.123Z,99.90
2019-05-01T06:15:07.591Z,99.90
2019-05-01T06:17:46.389Z,99.90
2019-05-01T06:20:46.044Z,99.90
2019-05-01T06:23:44.291Z,99.90
2019-05-01T06:26:32.193Z,99.90
2019-05-01T06:29:03.529Z,99.90
2019-05-01T06:31:33.896Z,99.90
2019-05-01T06:34:03.296Z,99.90
2019-05-01T06:36:33.316Z,99.90
2019-05-01T06:39:06.987Z,99.90
2019-05-01T06:41:43.556Z,99.90
2019-05-01T06:44:21.414Z,99.90
2019-05-01T06:46:58.297Z,99.90
2019-05-01T06:50:01.144Z,99.90
2019-05-01T06:52:32.930Z,99.90
2019-05-01T06:55:02.515Z,99.90
2019-05-01T06:57:32.975Z,99.90
2019-05-01T07:00:08.167Z,99.90
2019-05-01T07:02:36.951Z,99.90
2019-05-01T07:05:14.060Z,99.80
2019-05-01T07:07:43.130Z,99.90
2019-05-01T07:10:11.548Z,99.00
2019-05-01T07:12:41.379Z,98.20
2019-05-01T07:15:10.774Z,99.50
2019-05-01T07:17:43.914Z,99.40
2019-05-01T07:20:28.708Z,97.50
2019-05-01T07:22:58.400Z,97.20
2019-05-01T07:25:27.607Z,96.50
2019-05-01T07:27:58.588Z,95.10
2019-05-01T07:30:41.246Z,94.50
2019-05-01T07:33:12.062Z,93.50
2019-05-01T07:35:42.971Z,93.10
2019-05-01T07:38:12.661Z,93.40
2019-05-01T07:40:43.725Z,93.50
2019-05-01T07:43:48.671Z,93.50
2019-05-01T07:46:25.062Z,94.30
2019-05-01T07:48:56.128Z,94.20
2019-05-01T07:51:27.811Z,94.60
2019-05-01T07:53:59.163Z,94.20
2019-05-01T07:56:30.056Z,94.20
2019-05-01T07:58:59.943Z,94.20
2019-05-01T08:01:49.904Z,94.80
2019-05-01T08:04:35.294Z,95.10
2019-05-01T08:06:56.550Z,94.10
2019-05-01T08:09:24.420Z,93.60
2019-05-01T08:11:54.101Z,92.90
2019-05-01T08:14:22.973Z,92.60
2019-05-01T08:16:52.264Z,93.10
2019-05-01T08:19:40.709Z,92.20
2019-05-01T08:22:15.421Z,92.20
2019-05-01T08:24:44.411Z,91.90
2019-05-01T08:27:22.471Z,92.70
2019-05-01T08:34:49.444Z,91.60
2019-05-01T08:37:22.572Z,90.90
2019-05-01T08:39:51.172Z,90.90
2019-05-01T08:42:20.752Z,87.90
2019-05-01T08:45:13.120Z,87.50
2019-05-01T08:47:44.055Z,90.10
2019-05-01T08:50:19.812Z,88.00
2019-05-01T08:52:49.967Z,87.30
2019-05-01T08:55:19.364Z,83.20
2019-05-01T08:57:49.601Z,80.80
2019-05-01T09:00:19.200Z,80.00
2019-05-01T09:02:52.860Z,77.30
2019-05-01T09:05:28.776Z,79.40
2019-05-01T09:07:56.114Z,77.70
2019-05-01T09:10:23.577Z,78.70
2019-05-01T09:12:53.108Z,79.80
2019-05-01T09:15:23.220Z,77.20
2019-05-01T09:17:54.917Z,73.60
2019-05-01T09:20:24.802Z,71.20
2019-05-01T09:22:58.222Z,72.50
2019-05-01T09:25:36.940Z,72.40
2019-05-01T09:28:12.867Z,69.00
2019-05-01T09:30:52.001Z,71.00
2019-05-01T09:33:26.260Z,71.40
2019-05-01T09:35:54.008Z,72.50
2019-05-01T09:38:23.304Z,74.40
2019-05-01T09:40:55.465Z,75.20
2019-05-01T09:43:26.212Z,75.20
2019-05-01T09:45:55.124Z,75.30
2019-05-01T09:48:24.388Z,75.20
2019-05-01T09:51:16.399Z,72.70
2019-05-01T09:54:11.744Z,72.50
2019-05-01T09:56:41.432Z,73.00
2019-05-01T09:59:12.544Z,73.70
2019-05-01T10:01:43.256Z,75.00
2019-05-01T10:04:13.999Z,74.30
2019-05-01T10:06:43.159Z,76.80
2019-05-01T10:09:16.650Z,76.50
2019-05-01T10:11:44.687Z,77.60
2019-05-01T10:14:13.936Z,81.30
2019-05-01T10:16:42.899Z,80.90
2019-05-01T10:19:11.849Z,79.90
2019-05-01T10:21:41.054Z,79.20
2019-05-01T10:24:11.236Z,77.20
2019-05-01T10:26:42.105Z,74.70
2019-05-01T10:29:30.295Z,74.50
2019-05-01T10:32:11.859Z,73.20
2019-05-01T10:35:14.238Z,75.50
2019-05-01T10:37:44.721Z,75.70
2019-05-01T10:40:14.311Z,76.60
2019-05-01T10:42:44.388Z,75.70
2019-05-01T10:45:14.093Z,79.20
2019-05-01T10:47:43.908Z,78.90
2019-05-01T10:50:13.216Z,76.30
2019-05-01T10:52:42.633Z,83.30
2019-05-01T10:55:11.985Z,84.00
2019-05-01T10:57:42.184Z,80.80
2019-05-01T11:00:13.072Z,82.50
2019-05-01T11:02:44.669Z,78.00
2019-05-01T11:05:14.289Z,77.40
2019-05-01T11:07:46.135Z,76.00
2019-05-01T11:10:15.681Z,75.60
2019-05-01T11:12:44.773Z,78.30
2019-05-01T11:15:15.219Z,78.50
2019-05-01T11:17:44.983Z,79.00
2019-05-01T11:20:14.595Z,80.40
2019-05-01T11:22:44.296Z,80.40
2019-05-01T11:25:15.627Z,82.00
2019-05-01T11:27:45.783Z,79.60
2019-05-01T11:30:14.872Z,77.20
2019-05-01T11:32:56.984Z,79.30
2019-05-01T11:35:47.951Z,82.40
2019-05-01T11:38:36.335Z,84.40
2019-05-01T11:41:10.521Z,82.40
2019-05-01T11:43:39.940Z,79.90
2019-05-01T11:46:09.027Z,78.80
2019-05-01T11:48:38.456Z,78.30
2019-05-01T11:51:07.380Z,77.00
2019-05-01T11:53:36.510Z,75.60
2019-05-01T11:56:07.627Z,76.60
2019-05-01T11:58:37.042Z,79.90
2019-05-01T12:01:06.916Z,81.20
2019-05-01T12:03:36.153Z,82.10
2019-05-01T12:06:05.770Z,83.00
2019-05-01T12:08:35.065Z,82.20
2019-05-01T12:11:06.088Z,82.90
2019-05-01T12:13:43.645Z,81.10
2019-05-01T12:16:25.236Z,80.60
2019-05-01T12:18:54.536Z,79.70
2019-05-01T12:21:24.061Z,80.90
2019-05-01T12:23:53.627Z,77.10
2019-05-01T12:26:23.484Z,77.60
2019-05-01T12:29:12.135Z,79.40
2019-05-01T12:31:43.606Z,77.20
2019-05-01T12:34:12.954Z,74.30
2019-05-01T12:36:43.457Z,75.00
2019-05-01T12:39:20.121Z,75.40
2019-05-01T12:41:55.002Z,77.00
2019-05-01T12:44:24.844Z,75.90
2019-05-01T12:47:14.844Z,77.60
2019-05-01T12:49:45.667Z,76.40
2019-05-01T12:52:25.435Z,76.50
2019-05-01T12:55:03.970Z,78.10
2019-05-01T12:57:33.083Z,75.50
2019-05-01T13:00:08.941Z,75.80
2019-05-01T13:02:35.240Z,76.50
2019-05-01T13:05:05.051Z,77.20
2019-05-01T13:07:34.160Z,77.50
2019-05-01T13:10:03.429Z,76.50
2019-05-01T13:12:33.361Z,78.10
2019-05-01T13:15:04.962Z,82.20
2019-05-01T13:17:34.881Z,82.60
2019-05-01T13:20:05.964Z,84.50
2019-05-01T13:22:35.491Z,82.10
2019-05-01T13:25:05.565Z,80.90
2019-05-01T13:27:47.066Z,81.40
2019-05-01T13:30:42.781Z,83.20
2019-05-01T13:33:11.855Z,79.90
2019-05-01T13:35:43.473Z,78.90
2019-05-01T13:38:13.188Z,79.50
2019-05-01T13:40:42.263Z,77.50
2019-05-01T13:43:12.675Z,76.30
2019-05-01T13:45:44.237Z,74.50
2019-05-01T13:48:13.739Z,74.70
2019-05-01T13:50:42.866Z,74.60
2019-05-01T13:53:11.867Z,75.20
2019-05-01T13:55:44.102Z,77.00
2019-05-01T13:58:13.889Z,76.30
2019-05-01T14:00:43.083Z,78.10
2019-05-01T14:03:15.145Z,76.00
2019-05-01T14:05:49.490Z,73.40
2019-05-01T14:08:19.028Z,73.20
2019-05-01T14:10:53.044Z,72.40
2019-05-01T14:13:19.824Z,73.50
2019-05-01T14:15:51.455Z,73.90
2019-05-01T14:18:20.607Z,73.10
2019-05-01T14:21:12.868Z,72.70
2019-05-01T14:24:00.780Z,72.60
2019-05-01T14:26:33.676Z,72.90
2019-05-01T14:29:02.768Z,72.80
2019-05-01T14:31:33.395Z,74.50
2019-05-01T14:34:04.354Z,75.40
2019-05-01T14:36:33.512Z,74.20
2019-05-01T14:39:02.527Z,73.80
2019-05-01T14:41:32.080Z,73.90
2019-05-01T14:44:01.020Z,74.10
2019-05-01T14:46:30.196Z,76.60
2019-05-01T14:49:00.311Z,79.30
2019-05-01T14:51:32.696Z,77.50
2019-05-01T14:54:01.704Z,75.10
2019-05-01T14:56:31.260Z,74.00
2019-05-01T14:59:00.785Z,74.40
2019-05-01T15:01:30.069Z,73.20
2019-05-01T15:03:58.961Z,71.60
2019-05-01T15:06:29.408Z,73.40
2019-05-01T15:09:01.147Z,75.70
2019-05-01T15:11:30.349Z,77.70
2019-05-01T15:14:39.086Z,74.10
2019-05-01T15:17:23.191Z,74.40
2019-05-01T15:19:57.680Z,78.50
2019-05-01T15:22:30.659Z,76.40
2019-05-01T15:25:03.257Z,77.20
2019-05-01T15:27:32.617Z,74.40
2019-05-01T15:30:02.976Z,76.40
2019-05-01T15:32:32.102Z,77.40
2019-05-01T15:35:01.352Z,81.80
2019-05-01T15:37:30.943Z,76.40
2019-05-01T15:43:03.187Z,82.80
2019-05-01T15:45:33.676Z,82.10
2019-05-01T15:48:02.835Z,84.60
2019-05-01T15:50:34.565Z,85.50
2019-05-01T15:53:06.841Z,81.00
2019-05-01T15:55:35.731Z,80.90
2019-05-01T15:58:05.666Z,81.00
2019-05-01T16:00:34.918Z,81.20
2019-05-01T16:03:04.048Z,79.20
2019-05-01T16:05:33.308Z,80.40
2019-05-01T16:08:09.497Z,78.80
2019-05-01T16:10:43.864Z,79.50
2019-05-01T16:13:13.104Z,77.60
2019-05-01T16:15:43.351Z,79.10
2019-05-01T16:18:13.398Z,78.40
2019-05-01T16:20:43.632Z,77.30
2019-05-01T16:23:13.053Z,77.90
2019-05-01T16:25:43.706Z,79.10
2019-05-01T16:28:13.956Z,79.60
2019-05-01T16:30:45.267Z,79.50
2019-05-01T16:33:17.119Z,79.90
2019-05-01T16:35:48.965Z,78.30
2019-05-01T16:38:25.561Z,76.10
2019-05-01T16:41:09.022Z,78.00
2019-05-01T16:43:38.728Z,75.90
2019-05-01T16:46:08.148Z,78.40
2019-05-01T16:48:39.309Z,77.80
2019-05-01T16:51:27.637Z,79.30
2019-05-01T16:53:57.437Z,79.20
2019-05-01T16:56:27.999Z,82.80
2019-05-01T16:58:59.075Z,82.00
2019-05-01T17:01:52.505Z,85.70
2019-05-01T17:04:33.011Z,85.60
2019-05-01T17:07:28.384Z,86.50
2019-05-01T17:10:08.636Z,86.80
2019-05-01T17:12:48.651Z,87.50
2019-05-01T17:15:25.537Z,87.40
2019-05-01T17:17:54.832Z,85.00
2019-05-01T17:20:26.998Z,83.30
2019-05-01T17:22:58.756Z,82.30
2019-05-01T17:25:29.512Z,82.10
2019-05-01T17:28:02.781Z,81.90
2019-05-01T17:30:39.909Z,80.30
2019-05-01T17:33:09.972Z,80.30
2019-05-01T17:35:41.758Z,80.60
2019-05-01T17:38:11.004Z,79.90
2019-05-01T17:40:41.152Z,79.90
2019-05-01T17:43:13.381Z,79.30
2019-05-01T17:45:44.056Z,79.00
2019-05-01T17:48:13.624Z,78.70
2019-05-01T17:50:43.087Z,79.10
2019-05-01T17:53:12.539Z,79.40
2019-05-01T17:55:42.064Z,80.40
2019-05-01T17:58:11.541Z,80.10
2019-05-01T18:00:58.392Z,80.40
2019-05-01T18:03:42.120Z,79.80
2019-05-01T18:06:13.297Z,79.10
2019-05-01T18:08:42.410Z,79.30
2019-05-01T18:11:14.219Z,79.40
2019-05-01T18:13:42.914Z,79.20
2019-05-01T18:16:14.785Z,79.80
2019-05-01T18:18:44.291Z,81.10
2019-05-01T18:21:13.543Z,81.00
2019-05-01T18:24:05.588Z,81.40
2019-05-01T18:26:53.088Z,82.10
2019-05-01T18:29:29.587Z,83.30
2019-05-01T18:32:08.173Z,84.10
2019-05-01T18:34:38.356Z,86.50
2019-05-01T18:37:31.287Z,87.40
2019-05-01T18:39:59.360Z,87.40
2019-05-01T18:42:30.112Z,88.90
2019-05-01T18:44:59.793Z,88.90
2019-05-01T18:47:29.066Z,90.60
2019-05-01T18:49:59.374Z,90.70
2019-05-01T18:52:28.910Z,91.40
2019-05-01T18:54:59.333Z,93.50
2019-05-01T18:57:31.891Z,95.80
2019-05-01T19:00:03.973Z,97.80
2019-05-01T19:02:33.477Z,99.90
2019-05-01T19:05:04.149Z,99.90
2019-05-01T19:07:35.044Z,99.90
2019-05-01T19:10:06.698Z,99.90
2019-05-01T19:12:36.633Z,99.90
2019-05-01T19:15:06.848Z,99.90
2019-05-01T19:17:36.593Z,99.90
2019-05-01T19:20:06.925Z,99.90
2019-05-01T19:22:36.470Z,99.90
2019-05-01T19:25:10.971Z,99.90
2019-05-01T19:27:38.125Z,99.90
2019-05-01T19:30:09.752Z,99.90
2019-05-01T19:32:42.208Z,99.90
2019-05-01T19:35:11.482Z,99.90
2019-05-01T19:37:42.500Z,99.90
2019-05-01T19:40:12.889Z,99.90
2019-05-01T19:42:42.717Z,99.90
2019-05-01T19:45:11.829Z,99.90
2019-05-01T19:47:43.918Z,99.90
2019-05-01T19:50:14.133Z,99.90
2019-05-01T19:52:44.367Z,99.90
2019-05-01T19:55:15.103Z,99.90
2019-05-01T19:57:44.320Z,99.90
2019-05-01T20:00:19.271Z,99.90
2019-05-01T20:02:54.229Z,99.90
2019-05-01T20:05:21.964Z,99.90
2019-05-01T20:07:56.067Z,99.90
2019-05-01T20:10:23.414Z,99.90
2019-05-01T20:12:52.980Z,99.90
2019-05-01T20:15:25.122Z,99.90
2019-05-01T20:17:54.546Z,99.90
2019-05-01T20:20:23.419Z,99.90
2019-05-01T20:22:55.310Z,99.90
2019-05-01T20:25:26.373Z,99.90
2019-05-01T20:27:57.371Z,99.90
2019-05-01T20:30:30.481Z,99.90
2019-05-01T20:33:02.391Z,99.90
2019-05-01T20:35:36.134Z,99.90
2019-05-01T20:38:06.654Z,99.90
2019-05-01T20:40:35.796Z,99.90
2019-05-01T20:43:07.355Z,99.90
2019-05-01T20:45:38.478Z,99.90
2019-05-01T20:48:08.180Z,99.90
2019-05-01T20:50:40.156Z,99.90
2019-05-01T20:53:09.161Z,99.90
2019-05-01T20:55:39.323Z,99.90
2019-05-01T20:58:19.212Z,99.90
2019-05-01T21:00:53.294Z,99.90
2019-05-01T21:03:23.993Z,99.90
2019-05-01T21:06:07.933Z,99.90
2019-05-01T21:08:55.836Z,99.90
2019-05-01T21:11:31.116Z,99.90
2019-05-01T21:14:15.533Z,99.90
2019-05-01T21:16:32.944Z,99.90
2019-05-01T21:19:04.160Z,99.90
2019-05-01T21:21:34.369Z,99.90
2019-05-01T21:24:04.683Z,99.90
2019-05-01T21:26:34.045Z,99.90
2019-05-01T21:29:04.079Z,99.90
2019-05-01T21:31:34.223Z,99.90
2019-05-01T21:34:04.273Z,99.90
2019-05-01T21:36:34.443Z,99.90
2019-05-01T21:39:05.717Z,99.90
2019-05-01T21:41:34.855Z,99.90
2019-05-01T21:44:07.708Z,99.90
2019-05-01T21:46:39.106Z,99.90
2019-05-01T21:49:09.331Z,99.90
2019-05-01T21:51:44.331Z,99.90
2019-05-01T21:54:10.052Z,99.90
2019-05-01T21:56:41.489Z,99.90
2019-05-01T21:59:12.164Z,99.90
2019-05-01T22:01:41.956Z,99.90
2019-05-01T22:04:11.484Z,99.90
2019-05-01T22:06:46.796Z,99.90
2019-05-01T22:09:21.992Z,99.90
2019-05-01T22:11:51.584Z,99.90
2019-05-01T22:14:36.128Z,99.90
2019-05-01T22:17:07.311Z,99.90
2019-05-01T22:19:36.391Z,99.90
2019-05-01T22:22:18.847Z,99.90
2019-05-01T22:25:16.730Z,99.90
2019-05-01T22:27:49.668Z,99.90
2019-05-01T22:30:28.506Z,99.90
2019-05-01T22:32:57.954Z,99.90
2019-05-01T22:35:32.644Z,99.90
2019-05-01T22:38:02.877Z,99.90
2019-05-01T22:41:06.140Z,99.90
2019-05-01T22:43:28.455Z,99.90
2019-05-01T22:46:01.987Z,99.90
2019-05-01T22:48:28.757Z,99.90
2019-05-01T22:51:01.953Z,99.90
2019-05-01T22:53:31.298Z,99.90
2019-05-01T22:56:02.223Z,99.90
2019-05-01T22:58:33.788Z,99.90
2019-05-01T23:01:04.995Z,99.90
2019-05-01T23:03:42.357Z,99.90
2019-05-01T23:06:12.509Z,99.90
2019-05-01T23:08:42.218Z,99.90
2019-05-01T23:11:19.807Z,99.90
2019-05-01T23:13:44.410Z,99.90
2019-05-01T23:16:14.743Z,99.90
2019-05-01T23:18:47.079Z,99.90
2019-05-01T23:21:17.639Z,99.90
2019-05-01T23:23:48.732Z,99.90
2019-05-01T23:26:19.107Z,99.90
2019-05-01T23:28:50.640Z,99.90
2019-05-01T23:31:22.221Z,99.90
2019-05-01T23:33:52.425Z,99.90
2019-05-01T23:36:23.962Z,99.90
2019-05-01T23:38:53.725Z,99.90
2019-05-01T23:41:44.664Z,99.90
2019-05-01T23:43:58.307Z,99.90
2019-05-01T23:46:26.900Z,99.90
2019-05-01T23:48:58.547Z,99.90
2019-05-01T23:51:28.714Z,99.90
2019-05-01T23:54:02.584Z,99.90
2019-05-01T23:56:35.121Z,99.90
2019-05-01T23:59:04.920Z,99.90
